createdAt,value
2018-05-23T00:01:02.946Z,56.78
2018-05-23T00:03:29.601Z,56.36
2018-05-23T00:05:55.456Z,57.08
2018-05-23T00:08:21.433Z,56.15
2018-05-23T00:10:47.232Z,56.67
2018-05-23T00:13:13.933Z,56.85
2018-05-23T00:15:39.736Z,56.62
2018-05-23T00:18:06.455Z,56.92
2018-05-23T00:20:32.256Z,57.07
2018-05-23T00:22:59.047Z,56.82
2018-05-23T00:25:25.645Z,56.73
2018-05-23T00:27:51.482Z,56.76
2018-05-23T00:30:17.428Z,56.75
2018-05-23T00:32:43.353Z,56.69
2018-05-23T00:35:09.265Z,56.33
2018-05-23T00:37:36.120Z,56.70
2018-05-23T00:40:02.896Z,57.01
2018-05-23T00:42:28.733Z,56.44
2018-05-23T00:44:55.359Z,56.86
2018-05-23T00:47:21.301Z,56.25
2018-05-23T00:49:48.208Z,56.81
2018-05-23T00:52:14.879Z,56.46
2018-05-23T00:54:46.764Z,56.87
2018-05-23T00:57:13.620Z,56.82
2018-05-23T00:59:40.248Z,57.32
2018-05-23T01:02:06.948Z,57.02
2018-05-23T01:04:32.801Z,57.11
2018-05-23T01:06:59.464Z,56.99
2018-05-23T01:09:26.404Z,57.13
2018-05-23T01:11:53.225Z,57.02
2018-05-23T01:14:19.144Z,57.16
2018-05-23T01:16:44.985Z,56.02
2018-05-23T01:19:10.883Z,56.87
2018-05-23T01:21:36.735Z,57.00
2018-05-23T01:24:02.542Z,57.07
2018-05-23T01:26:29.263Z,56.97
2018-05-23T01:28:56.026Z,56.74
2018-05-23T01:31:22.627Z,56.60
2018-05-23T01:33:49.385Z,57.20
2018-05-23T01:36:16.153Z,56.91
2018-05-23T01:38:42.972Z,57.09
2018-05-23T01:41:08.772Z,57.18
2018-05-23T01:43:34.641Z,57.41
2018-05-23T01:46:00.436Z,57.03
2018-05-23T01:48:32.308Z,57.18
2018-05-23T01:50:59.076Z,56.19
2018-05-23T01:53:24.924Z,56.82
2018-05-23T01:55:50.724Z,56.71
2018-05-23T01:58:16.576Z,57.01
2018-05-23T02:00:42.376Z,56.60
2018-05-23T02:03:08.172Z,57.13
2018-05-23T02:05:33.973Z,56.92
2018-05-23T02:07:59.774Z,56.89
2018-05-23T02:10:26.374Z,57.20
2018-05-23T02:12:53.128Z,57.09
2018-05-23T02:15:18.929Z,56.52
2018-05-23T02:17:44.731Z,57.15
2018-05-23T02:20:10.536Z,56.75
2018-05-23T02:22:36.402Z,56.75
2018-05-23T02:25:02.204Z,57.10
2018-05-23T02:27:28.005Z,57.11
2018-05-23T02:29:53.808Z,57.40
2018-05-23T02:32:19.617Z,57.23
2018-05-23T02:34:45.423Z,57.19
2018-05-23T02:37:11.252Z,56.98
2018-05-23T02:39:37.052Z,56.75
2018-05-23T02:42:03.830Z,56.54
2018-05-23T02:44:29.628Z,57.03
2018-05-23T02:46:55.784Z,56.38
2018-05-23T02:49:21.596Z,56.32
2018-05-23T02:51:47.396Z,55.87
2018-05-23T02:54:13.196Z,56.73
2018-05-23T02:56:39.001Z,56.39
2018-05-23T02:59:04.957Z,56.09
2018-05-23T03:01:30.756Z,56.07
2018-05-23T03:03:57.348Z,56.15
2018-05-23T03:06:23.242Z,56.71
2018-05-23T03:08:49.036Z,56.90
2018-05-23T03:11:14.874Z,56.44
2018-05-23T03:13:41.572Z,56.76
2018-05-23T03:16:07.372Z,57.17
2018-05-23T03:18:33.324Z,56.88
2018-05-23T03:20:59.178Z,56.53
2018-05-23T03:23:24.982Z,56.89
2018-05-23T03:25:50.850Z,56.42
2018-05-23T03:28:16.652Z,56.97
2018-05-23T03:30:42.452Z,56.85
2018-05-23T03:33:08.301Z,56.90
2018-05-23T03:35:34.100Z,56.97
2018-05-23T03:37:59.989Z,56.66
2018-05-23T03:40:25.793Z,56.22
2018-05-23T03:42:51.592Z,56.92
2018-05-23T03:45:17.395Z,56.63
2018-05-23T03:47:43.196Z,56.87
2018-05-23T03:50:09.865Z,57.02
2018-05-23T03:52:36.513Z,57.16
2018-05-23T03:55:02.370Z,56.96
2018-05-23T03:57:28.168Z,56.93
2018-05-23T04:00:00.165Z,55.90
2018-05-23T04:02:32.268Z,56.56
2018-05-23T04:05:04.313Z,56.97
2018-05-23T04:07:30.128Z,57.05
2018-05-23T04:09:55.972Z,57.29
2018-05-23T04:12:21.772Z,56.63
2018-05-23T04:14:48.457Z,57.22
2018-05-23T04:17:14.300Z,56.72
2018-05-23T04:19:40.973Z,56.59
2018-05-23T04:22:07.734Z,57.24
2018-05-23T04:24:33.605Z,57.10
2018-05-23T04:27:00.199Z,56.92
2018-05-23T04:29:26.036Z,56.57
2018-05-23T04:31:51.884Z,57.20
2018-05-23T04:34:17.688Z,57.52
2018-05-23T04:36:44.548Z,56.65
2018-05-23T04:39:11.216Z,57.32
2018-05-23T04:41:37.026Z,56.88
2018-05-23T04:44:04.017Z,57.32
2018-05-23T04:46:30.744Z,57.07
2018-05-23T04:48:57.540Z,57.42
2018-05-23T04:51:23.341Z,57.24
2018-05-23T04:53:49.143Z,57.30
2018-05-23T04:56:15.959Z,57.52
2018-05-23T04:58:42.807Z,57.02
2018-05-23T05:01:08.609Z,56.64
2018-05-23T05:03:34.416Z,55.86
2018-05-23T05:06:00.248Z,54.98
2018-05-23T05:08:26.057Z,54.89
2018-05-23T05:10:51.892Z,54.65
2018-05-23T05:13:17.816Z,53.88
2018-05-23T05:15:43.617Z,53.75
2018-05-23T05:18:10.435Z,52.90
2018-05-23T05:20:37.314Z,53.76
2018-05-23T05:23:03.116Z,53.03
2018-05-23T05:25:28.917Z,52.43
2018-05-23T05:27:54.893Z,52.42
2018-05-23T05:30:21.672Z,52.82
2018-05-23T05:32:47.481Z,53.52
2018-05-23T05:35:13.288Z,52.97
2018-05-23T05:37:39.962Z,53.29
2018-05-23T05:40:05.962Z,53.74
2018-05-23T05:42:32.740Z,52.90
2018-05-23T05:44:58.701Z,54.02
2018-05-23T05:47:25.312Z,54.08
2018-05-23T05:49:51.114Z,54.11
2018-05-23T05:52:17.077Z,54.20
2018-05-23T05:54:42.873Z,54.36
2018-05-23T05:57:09.253Z,54.21
2018-05-23T05:59:35.116Z,54.10
2018-05-23T06:02:01.048Z,54.29
2018-05-23T06:04:26.812Z,54.37
2018-05-23T06:06:52.608Z,54.43
2018-05-23T06:09:18.422Z,54.56
2018-05-23T06:11:44.224Z,54.44
2018-05-23T06:14:10.024Z,54.45
2018-05-23T06:16:35.820Z,54.53
2018-05-23T06:19:01.613Z,54.63
2018-05-23T06:21:27.409Z,54.52
2018-05-23T06:23:53.204Z,54.61
2018-05-23T06:26:19.005Z,54.87
2018-05-23T06:28:44.804Z,54.75
2018-05-23T06:31:10.644Z,54.71
2018-05-23T06:33:36.485Z,54.75
2018-05-23T06:36:02.282Z,54.81
2018-05-23T06:38:28.116Z,54.94
2018-05-23T06:40:54.781Z,54.75
2018-05-23T06:43:20.636Z,54.98
2018-05-23T06:45:46.439Z,54.95
2018-05-23T06:48:12.244Z,54.82
2018-05-23T06:50:38.040Z,54.79
2018-05-23T06:53:03.907Z,54.88
2018-05-23T06:55:29.828Z,55.11
2018-05-23T06:57:55.672Z,55.02
2018-05-23T07:00:21.611Z,55.13
2018-05-23T07:02:47.418Z,55.18
2018-05-23T07:05:13.272Z,55.07
2018-05-23T07:07:39.069Z,55.06
2018-05-23T07:10:04.878Z,55.31
2018-05-23T07:12:31.221Z,55.25
2018-05-23T07:14:57.033Z,55.11
2018-05-23T07:17:22.841Z,55.20
2018-05-23T07:19:48.646Z,55.26
2018-05-23T07:22:14.500Z,55.17
2018-05-23T07:24:41.184Z,55.17
2018-05-23T07:27:07.857Z,55.26
2018-05-23T07:29:33.671Z,55.25
2018-05-23T07:31:59.472Z,55.30
2018-05-23T07:34:25.357Z,55.42
2018-05-23T07:36:51.190Z,55.48
2018-05-23T07:39:17.036Z,55.39
2018-05-23T07:41:42.841Z,55.63
2018-05-23T07:44:08.684Z,55.46
2018-05-23T07:46:34.476Z,55.56
2018-05-23T07:49:00.272Z,55.68
2018-05-23T07:51:26.080Z,55.83
2018-05-23T07:53:52.719Z,55.86
2018-05-23T07:56:19.517Z,55.95
2018-05-23T07:58:45.315Z,55.91
2018-05-23T08:01:11.179Z,56.01
2018-05-23T08:03:37.792Z,56.08
2018-05-23T08:06:04.536Z,56.07
2018-05-23T08:08:30.396Z,56.20
2018-05-23T08:10:56.236Z,55.99
2018-05-23T08:13:22.032Z,56.20
2018-05-23T08:15:48.760Z,56.10
2018-05-23T08:18:15.509Z,56.28
2018-05-23T08:20:41.362Z,56.10
2018-05-23T08:23:07.157Z,56.48
2018-05-23T08:25:32.952Z,56.36
2018-05-23T08:27:58.761Z,56.33
2018-05-23T08:30:24.566Z,56.35
2018-05-23T08:32:50.405Z,56.27
2018-05-23T08:35:17.199Z,56.35
2018-05-23T08:37:43.000Z,56.50
2018-05-23T08:40:09.663Z,56.49
2018-05-23T08:42:36.405Z,56.45
2018-05-23T08:45:02.237Z,56.46
2018-05-23T08:47:28.128Z,56.39
2018-05-23T08:49:53.928Z,56.56
2018-05-23T08:52:19.729Z,56.51
2018-05-23T08:54:45.528Z,56.52
2018-05-23T08:57:11.328Z,56.57
2018-05-23T08:59:37.127Z,56.60
2018-05-23T09:02:03.790Z,56.47
2018-05-23T09:04:29.684Z,56.35
2018-05-23T09:06:55.487Z,55.95
2018-05-23T09:09:22.177Z,55.60
2018-05-23T09:11:47.971Z,54.99
2018-05-23T09:14:13.768Z,54.29
2018-05-23T09:16:39.565Z,53.71
2018-05-23T09:19:05.373Z,53.39
2018-05-23T09:21:32.124Z,53.21
2018-05-23T09:23:57.930Z,53.36
2018-05-23T09:26:24.708Z,53.13
2018-05-23T09:28:51.340Z,52.96
2018-05-23T09:31:17.222Z,52.81
2018-05-23T09:33:43.852Z,52.90
2018-05-23T09:36:09.652Z,53.54
2018-05-23T09:38:35.456Z,53.32
2018-05-23T09:41:01.248Z,53.79
2018-05-23T09:43:27.040Z,53.29
2018-05-23T09:45:52.839Z,53.32
2018-05-23T09:48:18.669Z,53.68
2018-05-23T09:50:44.468Z,54.01
2018-05-23T09:53:10.269Z,53.84
2018-05-23T09:55:36.899Z,54.13
2018-05-23T09:58:02.701Z,53.76
2018-05-23T10:00:28.540Z,53.83
2018-05-23T10:02:54.342Z,53.60
2018-05-23T10:05:20.184Z,53.98
2018-05-23T10:07:46.911Z,54.07
2018-05-23T10:10:12.749Z,54.01
2018-05-23T10:12:38.544Z,54.22
2018-05-23T10:15:04.341Z,54.32
2018-05-23T10:17:30.144Z,54.51
2018-05-23T10:19:55.949Z,54.45
2018-05-23T10:22:21.757Z,54.35
2018-05-23T10:24:47.561Z,54.39
2018-05-23T10:27:13.368Z,54.39
2018-05-23T10:29:39.176Z,54.66
2018-05-23T10:32:05.839Z,54.84
2018-05-23T10:34:31.648Z,54.50
2018-05-23T10:36:57.660Z,54.61
2018-05-23T10:39:23.623Z,54.79
2018-05-23T10:41:49.429Z,54.63
2018-05-23T10:44:16.014Z,55.04
2018-05-23T10:46:41.812Z,55.00
2018-05-23T10:49:07.604Z,54.87
2018-05-23T10:51:33.674Z,54.87
2018-05-23T10:53:59.469Z,55.07
2018-05-23T10:56:25.268Z,55.07
2018-05-23T10:58:51.064Z,54.96
2018-05-23T11:01:16.860Z,55.10
2018-05-23T11:03:42.705Z,54.86
2018-05-23T11:06:08.501Z,55.42
2018-05-23T11:08:34.337Z,55.32
2018-05-23T11:11:00.992Z,55.20
2018-05-23T11:13:26.792Z,55.34
2018-05-23T11:15:53.615Z,55.17
2018-05-23T11:18:20.407Z,55.21
2018-05-23T11:20:47.124Z,55.26
2018-05-23T11:23:12.968Z,55.47
2018-05-23T11:25:39.614Z,55.17
2018-05-23T11:28:06.502Z,55.36
2018-05-23T11:30:33.118Z,55.48
2018-05-23T11:32:59.779Z,55.35
2018-05-23T11:35:26.545Z,55.50
2018-05-23T11:37:52.352Z,55.39
2018-05-23T11:40:18.756Z,55.46
2018-05-23T11:42:44.595Z,55.20
2018-05-23T11:45:10.396Z,55.40
2018-05-23T11:47:36.241Z,55.27
2018-05-23T11:50:02.037Z,55.09
2018-05-23T11:52:27.980Z,55.47
2018-05-23T11:54:53.779Z,55.54
2018-05-23T11:57:19.658Z,55.50
2018-05-23T11:59:45.464Z,55.83
2018-05-23T12:02:11.324Z,55.70
2018-05-23T12:04:37.120Z,54.91
2018-05-23T12:07:02.973Z,55.27
2018-05-23T12:09:28.773Z,55.64
2018-05-23T12:11:54.569Z,55.48
2018-05-23T12:14:21.223Z,55.60
2018-05-23T12:16:47.028Z,55.62
2018-05-23T12:19:12.872Z,55.56
2018-05-23T12:21:38.664Z,55.35
2018-05-23T12:24:04.460Z,55.59
2018-05-23T12:26:31.281Z,55.38
2018-05-23T12:28:57.116Z,55.67
2018-05-23T12:31:22.916Z,55.73
2018-05-23T12:33:48.707Z,55.82
2018-05-23T12:36:14.505Z,55.41
2018-05-23T12:38:40.359Z,55.51
2018-05-23T12:41:06.206Z,55.81
2018-05-23T12:43:32.006Z,55.50
2018-05-23T12:45:57.821Z,55.82
2018-05-23T12:48:23.620Z,55.35
2018-05-23T12:50:49.420Z,55.82
2018-05-23T12:53:15.256Z,55.89
2018-05-23T12:55:41.989Z,55.90
2018-05-23T12:58:08.786Z,55.90
2018-05-23T13:00:34.594Z,55.50
2018-05-23T13:03:01.401Z,55.89
2018-05-23T13:05:27.257Z,55.61
2018-05-23T13:07:53.151Z,55.61
2018-05-23T13:10:19.958Z,56.01
2018-05-23T13:12:46.962Z,56.02
2018-05-23T13:15:12.929Z,55.88
2018-05-23T13:17:39.682Z,55.95
2018-05-23T13:20:06.512Z,56.01
2018-05-23T13:22:32.308Z,55.86
2018-05-23T13:24:58.167Z,56.04
2018-05-23T13:27:24.924Z,55.89
2018-05-23T13:29:50.724Z,56.01
2018-05-23T13:32:17.453Z,55.97
2018-05-23T13:34:44.248Z,55.90
2018-05-23T13:37:11.008Z,55.92
2018-05-23T13:39:36.864Z,55.84
2018-05-23T13:42:02.660Z,56.00
2018-05-23T13:44:28.455Z,56.20
2018-05-23T13:46:54.252Z,55.84
2018-05-23T13:49:20.048Z,55.86
2018-05-23T13:51:46.876Z,55.84
2018-05-23T13:54:12.676Z,55.97
2018-05-23T13:56:38.473Z,56.12
2018-05-23T13:59:04.301Z,56.21
2018-05-23T14:01:31.077Z,56.09
2018-05-23T14:03:56.884Z,55.95
2018-05-23T14:06:22.681Z,56.24
2018-05-23T14:08:48.484Z,55.98
2018-05-23T14:11:14.281Z,56.01
2018-05-23T14:13:41.012Z,55.98
2018-05-23T14:16:06.816Z,56.00
2018-05-23T14:18:32.740Z,56.15
2018-05-23T14:20:59.501Z,55.75
2018-05-23T14:23:25.320Z,55.92
2018-05-23T14:25:52.021Z,56.33
2018-05-23T14:28:17.821Z,56.14
2018-05-23T14:30:44.480Z,56.08
2018-05-23T14:33:10.294Z,56.20
2018-05-23T14:35:36.957Z,55.90
2018-05-23T14:38:03.728Z,56.29
2018-05-23T14:40:30.500Z,56.04
2018-05-23T14:42:56.300Z,56.17
2018-05-23T14:45:22.097Z,56.24
2018-05-23T14:47:47.899Z,55.99
2018-05-23T14:50:13.703Z,56.33
2018-05-23T14:52:39.552Z,56.08
2018-05-23T14:55:05.358Z,56.09
2018-05-23T14:57:31.178Z,56.24
2018-05-23T14:59:56.989Z,56.26
2018-05-23T15:02:22.897Z,56.22
2018-05-23T15:04:48.742Z,56.28
2018-05-23T15:07:15.448Z,56.23
2018-05-23T15:09:41.323Z,56.15
2018-05-23T15:12:07.125Z,56.21
2018-05-23T15:14:34.106Z,56.19
2018-05-23T15:17:00.906Z,56.35
2018-05-23T15:19:26.706Z,56.26
2018-05-23T15:21:52.510Z,56.12
2018-05-23T15:24:18.318Z,56.25
2018-05-23T15:26:44.157Z,56.12
2018-05-23T15:29:09.953Z,56.26
2018-05-23T15:31:35.839Z,56.43
2018-05-23T15:34:01.589Z,56.25
2018-05-23T15:36:27.463Z,56.27
2018-05-23T15:38:53.270Z,56.28
2018-05-23T15:41:19.068Z,56.33
2018-05-23T15:43:44.880Z,56.42
2018-05-23T15:46:10.680Z,56.39
2018-05-23T15:48:36.471Z,56.26
2018-05-23T15:51:02.321Z,56.22
2018-05-23T15:53:28.125Z,56.28
2018-05-23T15:55:53.925Z,56.40
2018-05-23T15:58:19.720Z,56.44
2018-05-23T16:00:45.532Z,56.65
2018-05-23T16:03:11.328Z,56.61
2018-05-23T16:05:37.180Z,56.34
2018-05-23T16:08:03.829Z,56.30
2018-05-23T16:10:29.677Z,56.18
2018-05-23T16:12:55.479Z,56.56
2018-05-23T16:15:21.277Z,56.31
2018-05-23T16:17:47.077Z,56.49
2018-05-23T16:20:13.681Z,56.30
2018-05-23T16:22:40.494Z,56.50
2018-05-23T16:25:07.253Z,56.59
2018-05-23T16:27:34.073Z,56.14
2018-05-23T16:29:59.872Z,56.63
2018-05-23T16:32:26.577Z,56.57
2018-05-23T16:34:53.393Z,56.80
2018-05-23T16:37:20.012Z,56.55
2018-05-23T16:39:45.807Z,56.61
2018-05-23T16:42:12.400Z,56.61
2018-05-23T16:44:38.243Z,56.53
2018-05-23T16:47:05.029Z,56.69
2018-05-23T16:49:30.867Z,56.65
2018-05-23T16:51:56.797Z,56.51
2018-05-23T16:54:23.465Z,56.71
2018-05-23T16:56:49.312Z,56.34
2018-05-23T16:59:15.108Z,56.82
2018-05-23T17:01:40.929Z,56.74
2018-05-23T17:04:07.548Z,56.70
2018-05-23T17:06:33.492Z,56.85
2018-05-23T17:08:59.184Z,56.61
2018-05-23T17:11:24.984Z,56.58
2018-05-23T17:13:50.828Z,56.76
2018-05-23T17:16:16.677Z,57.01
2018-05-23T17:18:42.596Z,56.84
2018-05-23T17:21:08.353Z,56.72
2018-05-23T17:23:34.155Z,56.72
2018-05-23T17:25:59.962Z,57.00
2018-05-23T17:28:26.650Z,56.73
2018-05-23T17:30:52.455Z,56.86
2018-05-23T17:33:18.305Z,56.87
2018-05-23T17:35:44.938Z,56.92
2018-05-23T17:38:10.747Z,57.04
2018-05-23T17:40:36.589Z,57.00
2018-05-23T17:43:02.492Z,56.94
2018-05-23T17:45:28.334Z,57.17
2018-05-23T17:47:55.098Z,56.97
2018-05-23T17:50:21.910Z,57.28
2018-05-23T17:52:48.589Z,57.15
2018-05-23T17:55:14.434Z,56.93
2018-05-23T17:57:40.785Z,56.32
2018-05-23T18:00:06.660Z,55.84
2018-05-23T18:02:32.465Z,55.23
2018-05-23T18:04:58.272Z,54.47
2018-05-23T18:07:24.940Z,54.76
2018-05-23T18:09:50.740Z,54.34
2018-05-23T18:12:16.550Z,54.42
2018-05-23T18:14:42.562Z,53.95
2018-05-23T18:17:08.365Z,53.80
2018-05-23T18:19:34.305Z,54.30
2018-05-23T18:22:00.113Z,53.69
2018-05-23T18:24:26.040Z,54.27
2018-05-23T18:26:52.813Z,53.59
2018-05-23T18:29:18.719Z,54.15
2018-05-23T18:31:44.534Z,53.75
2018-05-23T18:34:10.455Z,54.56
2018-05-23T18:36:36.368Z,54.45
2018-05-23T18:39:02.790Z,54.19
2018-05-23T18:41:28.719Z,54.76
2018-05-23T18:43:54.684Z,54.19
2018-05-23T18:46:20.505Z,54.59
2018-05-23T18:48:46.309Z,54.76
2018-05-23T18:51:12.116Z,54.90
2018-05-23T18:53:37.942Z,55.01
2018-05-23T18:56:03.772Z,54.93
2018-05-23T18:58:29.645Z,55.15
2018-05-23T19:00:55.608Z,55.05
2018-05-23T19:03:21.415Z,54.92
2018-05-23T19:05:48.180Z,55.10
2018-05-23T19:08:14.082Z,55.11
2018-05-23T19:10:39.936Z,54.96
2018-05-23T19:13:05.740Z,54.93
2018-05-23T19:15:31.544Z,55.44
2018-05-23T19:17:57.833Z,55.49
2018-05-23T19:20:23.644Z,55.47
2018-05-23T19:22:49.540Z,55.48
2018-05-23T19:25:15.386Z,55.48
2018-05-23T19:27:41.953Z,55.29
2018-05-23T19:30:07.757Z,55.69
2018-05-23T19:32:33.720Z,55.39
2018-05-23T19:34:59.841Z,55.72
2018-05-23T19:37:26.177Z,55.90
2018-05-23T19:39:52.047Z,55.82
2018-05-23T19:42:17.910Z,55.79
2018-05-23T19:44:43.757Z,55.77
2018-05-23T19:47:09.716Z,55.78
2018-05-23T19:49:36.373Z,55.97
2018-05-23T19:52:02.288Z,55.96
2018-05-23T19:54:28.112Z,55.47
2018-05-23T19:56:53.954Z,55.44
2018-05-23T19:59:19.882Z,55.44
2018-05-23T20:01:45.736Z,55.30
2018-05-23T20:04:11.596Z,55.46
2018-05-23T20:06:37.400Z,55.39
2018-05-23T20:09:05.101Z,55.32
2018-05-23T20:11:31.853Z,55.49
2018-05-23T20:13:57.707Z,55.42
2018-05-23T20:16:24.485Z,55.47
2018-05-23T20:18:50.356Z,55.50
2018-05-23T20:21:16.236Z,55.49
2018-05-23T20:23:42.734Z,55.56
2018-05-23T20:26:08.532Z,55.70
2018-05-23T20:28:34.332Z,55.48
2018-05-23T20:31:00.152Z,55.66
2018-05-23T20:33:26.937Z,55.62
2018-05-23T20:35:52.811Z,55.76
2018-05-23T20:38:18.676Z,55.50
2018-05-23T20:40:44.532Z,55.51
2018-05-23T20:43:11.321Z,55.71
2018-05-23T20:45:37.120Z,55.62
2018-05-23T20:48:02.916Z,55.66
2018-05-23T20:50:28.721Z,55.74
2018-05-23T20:52:54.676Z,55.78
2018-05-23T20:55:20.461Z,55.85
2018-05-23T20:57:46.309Z,55.90
2018-05-23T21:00:12.155Z,55.80
2018-05-23T21:02:38.025Z,55.81
2018-05-23T21:05:03.905Z,55.80
2018-05-23T21:07:29.697Z,56.09
2018-05-23T21:09:55.676Z,56.03
2018-05-23T21:12:21.485Z,55.56
2018-05-23T21:14:47.329Z,55.86
2018-05-23T21:17:13.888Z,55.84
2018-05-23T21:19:39.757Z,55.93
2018-05-23T21:22:05.563Z,55.89
2018-05-23T21:24:31.370Z,56.05
2018-05-23T21:26:57.200Z,56.01
2018-05-23T21:29:23.008Z,55.90
2018-05-23T21:31:48.850Z,56.01
2018-05-23T21:34:15.540Z,56.01
2018-05-23T21:36:42.345Z,56.00
2018-05-23T21:39:09.246Z,56.22
2018-05-23T21:41:35.172Z,56.03
2018-05-23T21:44:01.142Z,56.17
2018-05-23T21:46:26.944Z,56.14
2018-05-23T21:48:53.636Z,56.35
2018-05-23T21:51:19.441Z,56.13
2018-05-23T21:53:45.312Z,56.16
2018-05-23T21:56:11.113Z,56.14
2018-05-23T21:58:38.134Z,56.20
2018-05-23T22:01:03.940Z,56.32
2018-05-23T22:03:29.744Z,56.26
2018-05-23T22:05:56.173Z,56.37
2018-05-23T22:08:21.976Z,56.42
2018-05-23T22:10:47.780Z,56.53
2018-05-23T22:13:13.580Z,56.32
2018-05-23T22:15:39.512Z,56.23
2018-05-23T22:18:05.313Z,56.21
2018-05-23T22:20:32.084Z,56.32
2018-05-23T22:22:57.880Z,56.14
2018-05-23T22:25:23.680Z,56.03
2018-05-23T22:27:50.328Z,56.10
2018-05-23T22:30:16.209Z,56.05
2018-05-23T22:32:42.813Z,56.04
2018-05-23T22:35:09.250Z,56.21
2018-05-23T22:37:35.052Z,56.29
2018-05-23T22:40:00.852Z,56.22
2018-05-23T22:42:26.657Z,56.40
2018-05-23T22:44:52.459Z,56.31
2018-05-23T22:47:18.261Z,56.41
2018-05-23T22:49:44.065Z,56.44
2018-05-23T22:52:10.836Z,56.46
2018-05-23T22:54:37.408Z,56.60
2018-05-23T22:57:03.203Z,56.72
2018-05-23T22:59:29.794Z,56.50
2018-05-23T23:01:56.603Z,56.61
2018-05-23T23:04:22.400Z,56.81
2018-05-23T23:06:48.208Z,56.67
2018-05-23T23:09:14.009Z,56.86
2018-05-23T23:11:39.810Z,56.70
2018-05-23T23:14:05.616Z,56.80
2018-05-23T23:16:31.417Z,56.67
2018-05-23T23:18:57.296Z,56.81
2018-05-23T23:21:23.077Z,56.63
2018-05-23T23:23:48.884Z,56.87
2018-05-23T23:26:14.688Z,57.01
2018-05-23T23:28:40.500Z,56.87
2018-05-23T23:31:06.296Z,56.94
2018-05-23T23:33:32.200Z,56.83
2018-05-23T23:35:58.882Z,56.80
2018-05-23T23:38:25.644Z,57.04
2018-05-23T23:40:51.479Z,56.94
2018-05-23T23:43:17.320Z,56.76
2018-05-23T23:45:43.160Z,56.86
2018-05-23T23:48:09.965Z,56.76
2018-05-23T23:50:36.793Z,56.93
2018-05-23T23:53:02.604Z,56.81
2018-05-23T23:55:29.282Z,56.94
2018-05-23T23:57:55.500Z,56.98
